sensor_id;sensor_type;location;lat;lon;timestamp;P1;durP1;ratioP1;P2;durP2;ratioP2
54191;SDS011;40101;53.002;6.488;2023-01-16T00:02:14;6.53;;;3.10;;
54191;SDS011;40101;53.002;6.488;2023-01-16T00:04:47;4.13;;;2.47;;
54191;SDS011;40101;53.002;6.488;2023-01-16T00:07:13;5.47;;;3.30;;
54191;SDS011;40101;53.002;6.488;2023-01-16T00:09:39;7.68;;;3.40;;
54191;SDS011;40101;53.002;6.488;2023-01-16T00:12:05;4.95;;;3.00;;
54191;SDS011;40101;53.002;6.488;2023-01-16T00:14:35;5.13;;;3.05;;
54191;SDS011;40101;53.002;6.488;2023-01-16T00:17:00;5.57;;;3.15;;
54191;SDS011;40101;53.002;6.488;2023-01-16T00:19:26;6.47;;;3.05;;
54191;SDS011;40101;53.002;6.488;2023-01-16T00:21:52;6.18;;;2.97;;
54191;SDS011;40101;53.002;6.488;2023-01-16T00:24:17;4.22;;;2.85;;
54191;SDS011;40101;53.002;6.488;2023-01-16T00:26:43;9.95;;;2.75;;
54191;SDS011;40101;53.002;6.488;2023-01-16T00:29:09;5.47;;;2.60;;
54191;SDS011;40101;53.002;6.488;2023-01-16T00:31:35;8.43;;;2.63;;
54191;SDS011;40101;53.002;6.488;2023-01-16T00:34:00;3.45;;;2.22;;
54191;SDS011;40101;53.002;6.488;2023-01-16T00:36:26;6.97;;;3.33;;
54191;SDS011;40101;53.002;6.488;2023-01-16T00:38:51;8.55;;;2.90;;
54191;SDS011;40101;53.002;6.488;2023-01-16T00:41:17;5.80;;;2.75;;
54191;SDS011;40101;53.002;6.488;2023-01-16T00:43:43;5.40;;;2.55;;
54191;SDS011;40101;53.002;6.488;2023-01-16T00:46:08;6.75;;;3.33;;
54191;SDS011;40101;53.002;6.488;2023-01-16T00:48:34;6.68;;;2.42;;
54191;SDS011;40101;53.002;6.488;2023-01-16T00:51:00;6.85;;;2.95;;
54191;SDS011;40101;53.002;6.488;2023-01-16T00:53:25;7.65;;;2.92;;
54191;SDS011;40101;53.002;6.488;2023-01-16T00:55:51;9.05;;;3.13;;
54191;SDS011;40101;53.002;6.488;2023-01-16T00:58:17;8.00;;;3.08;;
54191;SDS011;40101;53.002;6.488;2023-01-16T01:00:43;9.60;;;2.80;;
54191;SDS011;40101;53.002;6.488;2023-01-16T01:03:09;5.25;;;2.80;;
54191;SDS011;40101;53.002;6.488;2023-01-16T01:05:35;7.65;;;2.33;;
54191;SDS011;40101;53.002;6.488;2023-01-16T01:08:02;8.60;;;2.97;;
54191;SDS011;40101;53.002;6.488;2023-01-16T01:10:28;6.97;;;2.53;;
54191;SDS011;40101;53.002;6.488;2023-01-16T01:12:54;10.23;;;3.25;;
54191;SDS011;40101;53.002;6.488;2023-01-16T01:15:20;10.95;;;2.50;;
54191;SDS011;40101;53.002;6.488;2023-01-16T01:17:48;10.25;;;2.88;;
54191;SDS011;40101;53.002;6.488;2023-01-16T01:20:42;9.05;;;3.28;;
54191;SDS011;40101;53.002;6.488;2023-01-16T01:23:23;6.07;;;2.28;;
54191;SDS011;40101;53.002;6.488;2023-01-16T01:26:11;5.50;;;2.53;;
54191;SDS011;40101;53.002;6.488;2023-01-16T01:28:38;6.15;;;2.97;;
54191;SDS011;40101;53.002;6.488;2023-01-16T01:31:05;8.80;;;2.33;;
54191;SDS011;40101;53.002;6.488;2023-01-16T01:33:32;4.85;;;2.42;;
54191;SDS011;40101;53.002;6.488;2023-01-16T01:35:58;7.43;;;2.55;;
54191;SDS011;40101;53.002;6.488;2023-01-16T01:38:23;10.27;;;3.08;;
54191;SDS011;40101;53.002;6.488;2023-01-16T01:40:49;8.32;;;2.88;;
54191;SDS011;40101;53.002;6.488;2023-01-16T01:43:15;10.73;;;2.50;;
54191;SDS011;40101;53.002;6.488;2023-01-16T01:45:54;9.05;;;3.45;;
54191;SDS011;40101;53.002;6.488;2023-01-16T01:48:24;5.40;;;2.90;;
54191;SDS011;40101;53.002;6.488;2023-01-16T01:51:27;3.22;;;2.28;;
54191;SDS011;40101;53.002;6.488;2023-01-16T01:56:16;8.80;;;2.80;;
54191;SDS011;40101;53.002;6.488;2023-01-16T01:58:46;8.63;;;3.28;;
54191;SDS011;40101;53.002;6.488;2023-01-16T02:01:17;6.00;;;3.05;;
54191;SDS011;40101;53.002;6.488;2023-01-16T02:03:47;7.85;;;2.88;;
54191;SDS011;40101;53.002;6.488;2023-01-16T02:06:19;9.57;;;2.80;;
54191;SDS011;40101;53.002;6.488;2023-01-16T02:08:49;7.50;;;2.88;;
54191;SDS011;40101;53.002;6.488;2023-01-16T02:11:19;6.18;;;2.70;;
54191;SDS011;40101;53.002;6.488;2023-01-16T02:13:54;7.88;;;2.13;;
54191;SDS011;40101;53.002;6.488;2023-01-16T02:16:21;9.63;;;2.80;;
54191;SDS011;40101;53.002;6.488;2023-01-16T02:19:08;8.10;;;2.40;;
54191;SDS011;40101;53.002;6.488;2023-01-16T02:24:50;9.38;;;3.42;;
54191;SDS011;40101;53.002;6.488;2023-01-16T02:30:35;14.23;;;2.95;;
54191;SDS011;40101;53.002;6.488;2023-01-16T02:36:28;6.60;;;2.53;;
54191;SDS011;40101;53.002;6.488;2023-01-16T02:44:22;6.75;;;3.10;;
54191;SDS011;40101;53.002;6.488;2023-01-16T02:49:28;9.05;;;2.35;;
54191;SDS011;40101;53.002;6.488;2023-01-16T02:52:22;9.15;;;2.70;;
54191;SDS011;40101;53.002;6.488;2023-01-16T02:55:04;4.50;;;2.03;;
54191;SDS011;40101;53.002;6.488;2023-01-16T02:57:43;7.72;;;2.47;;
54191;SDS011;40101;53.002;6.488;2023-01-16T03:00:14;5.75;;;2.25;;
54191;SDS011;40101;53.002;6.488;2023-01-16T03:02:42;5.68;;;2.60;;
54191;SDS011;40101;53.002;6.488;2023-01-16T03:05:08;5.43;;;2.72;;
54191;SDS011;40101;53.002;6.488;2023-01-16T03:10:29;5.68;;;2.22;;
54191;SDS011;40101;53.002;6.488;2023-01-16T03:16:13;8.63;;;2.50;;
54191;SDS011;40101;53.002;6.488;2023-01-16T03:18:50;4.82;;;2.53;;
54191;SDS011;40101;53.002;6.488;2023-01-16T03:24:25;10.63;;;3.05;;
54191;SDS011;40101;53.002;6.488;2023-01-16T03:27:00;7.03;;;2.58;;
54191;SDS011;40101;53.002;6.488;2023-01-16T03:32:25;8.57;;;2.78;;
54191;SDS011;40101;53.002;6.488;2023-01-16T03:35:07;11.98;;;3.20;;
54191;SDS011;40101;53.002;6.488;2023-01-16T03:37:49;8.88;;;3.42;;
54191;SDS011;40101;53.002;6.488;2023-01-16T03:40:18;7.90;;;2.97;;
54191;SDS011;40101;53.002;6.488;2023-01-16T03:46:18;10.75;;;3.85;;
54191;SDS011;40101;53.002;6.488;2023-01-16T03:51:05;6.07;;;4.38;;
54191;SDS011;40101;53.002;6.488;2023-01-16T03:53:38;8.65;;;3.97;;
54191;SDS011;40101;53.002;6.488;2023-01-16T03:56:21;8.02;;;4.07;;
54191;SDS011;40101;53.002;6.488;2023-01-16T03:58:56;8.73;;;4.82;;
54191;SDS011;40101;53.002;6.488;2023-01-16T04:01:34;7.72;;;4.78;;
54191;SDS011;40101;53.002;6.488;2023-01-16T04:04:03;11.10;;;4.50;;
54191;SDS011;40101;53.002;6.488;2023-01-16T04:06:40;16.27;;;6.47;;
54191;SDS011;40101;53.002;6.488;2023-01-16T04:09:23;9.50;;;4.50;;
54191;SDS011;40101;53.002;6.488;2023-01-16T04:12:03;8.63;;;4.68;;
54191;SDS011;40101;53.002;6.488;2023-01-16T04:14:32;12.18;;;5.90;;
54191;SDS011;40101;53.002;6.488;2023-01-16T04:16:59;9.13;;;4.97;;
54191;SDS011;40101;53.002;6.488;2023-01-16T04:19:26;10.10;;;5.70;;
54191;SDS011;40101;53.002;6.488;2023-01-16T04:21:56;12.93;;;5.40;;
54191;SDS011;40101;53.002;6.488;2023-01-16T04:24:21;12.10;;;6.05;;
54191;SDS011;40101;53.002;6.488;2023-01-16T04:26:47;8.40;;;5.35;;
54191;SDS011;40101;53.002;6.488;2023-01-16T04:29:16;10.65;;;6.15;;
54191;SDS011;40101;53.002;6.488;2023-01-16T04:31:42;14.27;;;5.80;;
54191;SDS011;40101;53.002;6.488;2023-01-16T04:34:07;12.50;;;6.20;;
54191;SDS011;40101;53.002;6.488;2023-01-16T04:36:35;11.93;;;6.28;;
54191;SDS011;40101;53.002;6.488;2023-01-16T04:39:01;10.13;;;6.50;;
54191;SDS011;40101;53.002;6.488;2023-01-16T04:41:26;12.40;;;6.47;;
54191;SDS011;40101;53.002;6.488;2023-01-16T04:44:05;11.30;;;6.45;;
54191;SDS011;40101;53.002;6.488;2023-01-16T04:46:33;12.38;;;6.50;;
54191;SDS011;40101;53.002;6.488;2023-01-16T04:48:59;13.38;;;6.88;;
54191;SDS011;40101;53.002;6.488;2023-01-16T04:51:24;11.52;;;6.90;;
54191;SDS011;40101;53.002;6.488;2023-01-16T04:53:50;17.67;;;7.95;;
54191;SDS011;40101;53.002;6.488;2023-01-16T04:56:16;13.52;;;8.30;;
54191;SDS011;40101;53.002;6.488;2023-01-16T04:58:42;12.35;;;7.53;;
54191;SDS011;40101;53.002;6.488;2023-01-16T05:01:08;11.00;;;7.43;;
54191;SDS011;40101;53.002;6.488;2023-01-16T05:03:33;12.57;;;8.45;;
54191;SDS011;40101;53.002;6.488;2023-01-16T05:05:59;16.98;;;8.65;;
54191;SDS011;40101;53.002;6.488;2023-01-16T05:08:27;11.90;;;8.45;;
54191;SDS011;40101;53.002;6.488;2023-01-16T05:10:53;10.85;;;7.30;;
54191;SDS011;40101;53.002;6.488;2023-01-16T05:13:22;16.45;;;9.43;;
54191;SDS011;40101;53.002;6.488;2023-01-16T05:15:47;15.20;;;10.10;;
54191;SDS011;40101;53.002;6.488;2023-01-16T05:18:13;17.30;;;10.88;;
54191;SDS011;40101;53.002;6.488;2023-01-16T05:20:39;15.20;;;9.57;;
54191;SDS011;40101;53.002;6.488;2023-01-16T05:23:05;14.73;;;11.10;;
54191;SDS011;40101;53.002;6.488;2023-01-16T05:25:33;18.23;;;10.35;;
54191;SDS011;40101;53.002;6.488;2023-01-16T05:27:59;19.63;;;11.23;;
54191;SDS011;40101;53.002;6.488;2023-01-16T05:30:24;19.50;;;11.05;;
54191;SDS011;40101;53.002;6.488;2023-01-16T05:32:50;18.35;;;11.75;;
54191;SDS011;40101;53.002;6.488;2023-01-16T05:35:16;13.80;;;10.07;;
54191;SDS011;40101;53.002;6.488;2023-01-16T05:37:42;16.77;;;10.25;;
54191;SDS011;40101;53.002;6.488;2023-01-16T05:40:10;18.33;;;11.52;;
54191;SDS011;40101;53.002;6.488;2023-01-16T05:42:36;19.70;;;11.15;;
54191;SDS011;40101;53.002;6.488;2023-01-16T05:45:04;16.40;;;10.98;;
54191;SDS011;40101;53.002;6.488;2023-01-16T05:47:30;20.73;;;11.38;;
54191;SDS011;40101;53.002;6.488;2023-01-16T05:49:58;20.40;;;11.90;;
54191;SDS011;40101;53.002;6.488;2023-01-16T05:52:24;21.55;;;11.90;;
54191;SDS011;40101;53.002;6.488;2023-01-16T05:54:51;19.73;;;13.07;;
54191;SDS011;40101;53.002;6.488;2023-01-16T05:57:17;26.45;;;12.40;;
54191;SDS011;40101;53.002;6.488;2023-01-16T05:59:43;24.05;;;11.88;;
54191;SDS011;40101;53.002;6.488;2023-01-16T06:02:11;23.80;;;12.15;;
54191;SDS011;40101;53.002;6.488;2023-01-16T06:04:37;28.10;;;12.80;;
54191;SDS011;40101;53.002;6.488;2023-01-16T06:07:03;19.15;;;12.52;;
54191;SDS011;40101;53.002;6.488;2023-01-16T06:09:28;15.70;;;10.98;;
54191;SDS011;40101;53.002;6.488;2023-01-16T06:11:54;19.15;;;11.57;;
54191;SDS011;40101;53.002;6.488;2023-01-16T06:14:20;17.90;;;10.93;;
54191;SDS011;40101;53.002;6.488;2023-01-16T06:16:45;22.45;;;12.15;;
54191;SDS011;40101;53.002;6.488;2023-01-16T06:19:11;14.05;;;9.82;;
54191;SDS011;40101;53.002;6.488;2023-01-16T06:21:37;18.42;;;10.13;;
54191;SDS011;40101;53.002;6.488;2023-01-16T06:24:02;15.57;;;10.25;;
54191;SDS011;40101;53.002;6.488;2023-01-16T06:26:28;21.45;;;11.02;;
54191;SDS011;40101;53.002;6.488;2023-01-16T06:28:54;21.00;;;10.35;;
54191;SDS011;40101;53.002;6.488;2023-01-16T06:31:21;17.45;;;11.05;;
54191;SDS011;40101;53.002;6.488;2023-01-16T06:33:53;16.17;;;9.80;;
54191;SDS011;40101;53.002;6.488;2023-01-16T06:36:19;21.50;;;10.57;;
54191;SDS011;40101;53.002;6.488;2023-01-16T06:38:48;14.15;;;9.38;;
54191;SDS011;40101;53.002;6.488;2023-01-16T06:41:13;16.17;;;9.25;;
54191;SDS011;40101;53.002;6.488;2023-01-16T06:43:39;20.00;;;11.05;;
54191;SDS011;40101;53.002;6.488;2023-01-16T06:46:05;19.40;;;8.85;;
54191;SDS011;40101;53.002;6.488;2023-01-16T06:48:30;11.48;;;7.78;;
54191;SDS011;40101;53.002;6.488;2023-01-16T06:50:57;15.98;;;8.43;;
54191;SDS011;40101;53.002;6.488;2023-01-16T06:53:25;18.05;;;8.68;;
54191;SDS011;40101;53.002;6.488;2023-01-16T06:55:51;18.42;;;8.05;;
54191;SDS011;40101;53.002;6.488;2023-01-16T06:58:16;14.13;;;8.35;;
54191;SDS011;40101;53.002;6.488;2023-01-16T07:00:42;15.80;;;7.38;;
54191;SDS011;40101;53.002;6.488;2023-01-16T07:03:08;12.45;;;8.13;;
54191;SDS011;40101;53.002;6.488;2023-01-16T07:05:35;16.33;;;8.15;;
54191;SDS011;40101;53.002;6.488;2023-01-16T07:08:02;12.82;;;7.55;;
54191;SDS011;40101;53.002;6.488;2023-01-16T07:10:27;13.68;;;6.93;;
54191;SDS011;40101;53.002;6.488;2023-01-16T07:12:53;18.98;;;7.75;;
54191;SDS011;40101;53.002;6.488;2023-01-16T07:15:20;16.33;;;7.53;;
54191;SDS011;40101;53.002;6.488;2023-01-16T07:18:07;10.82;;;7.78;;
54191;SDS011;40101;53.002;6.488;2023-01-16T07:20:57;11.73;;;7.03;;
54191;SDS011;40101;53.002;6.488;2023-01-16T07:23:46;11.73;;;6.03;;
54191;SDS011;40101;53.002;6.488;2023-01-16T07:26:14;10.88;;;6.50;;
54191;SDS011;40101;53.002;6.488;2023-01-16T07:28:44;17.02;;;6.53;;
54191;SDS011;40101;53.002;6.488;2023-01-16T07:31:10;16.80;;;6.75;;
54191;SDS011;40101;53.002;6.488;2023-01-16T07:33:37;11.15;;;6.25;;
54191;SDS011;40101;53.002;6.488;2023-01-16T07:36:03;11.15;;;5.65;;
54191;SDS011;40101;53.002;6.488;2023-01-16T07:38:29;10.05;;;7.15;;
54191;SDS011;40101;53.002;6.488;2023-01-16T07:40:54;17.77;;;5.82;;
54191;SDS011;40101;53.002;6.488;2023-01-16T07:43:22;10.60;;;6.03;;
54191;SDS011;40101;53.002;6.488;2023-01-16T07:45:48;17.73;;;6.05;;
54191;SDS011;40101;53.002;6.488;2023-01-16T07:48:23;11.48;;;5.80;;
54191;SDS011;40101;53.002;6.488;2023-01-16T07:50:54;12.88;;;5.70;;
54191;SDS011;40101;53.002;6.488;2023-01-16T07:53:21;15.43;;;5.47;;
54191;SDS011;40101;53.002;6.488;2023-01-16T07:55:55;12.77;;;5.95;;
54191;SDS011;40101;53.002;6.488;2023-01-16T07:58:27;13.45;;;6.32;;
54191;SDS011;40101;53.002;6.488;2023-01-16T08:00:56;14.63;;;6.40;;
54191;SDS011;40101;53.002;6.488;2023-01-16T08:03:24;7.60;;;5.25;;
54191;SDS011;40101;53.002;6.488;2023-01-16T08:05:57;10.27;;;6.55;;
54191;SDS011;40101;53.002;6.488;2023-01-16T08:08:23;14.13;;;6.68;;
54191;SDS011;40101;53.002;6.488;2023-01-16T08:10:56;13.60;;;6.97;;
54191;SDS011;40101;53.002;6.488;2023-01-16T08:17:21;16.77;;;6.68;;
54191;SDS011;40101;53.002;6.488;2023-01-16T08:19:47;12.18;;;7.18;;
54191;SDS011;40101;53.002;6.488;2023-01-16T08:22:12;11.00;;;7.05;;
54191;SDS011;40101;53.002;6.488;2023-01-16T08:24:38;14.98;;;7.55;;
54191;SDS011;40101;53.002;6.488;2023-01-16T08:27:04;14.60;;;6.78;;
54191;SDS011;40101;53.002;6.488;2023-01-16T08:29:29;11.05;;;7.13;;
54191;SDS011;40101;53.002;6.488;2023-01-16T08:31:55;14.13;;;6.60;;
54191;SDS011;40101;53.002;6.488;2023-01-16T08:34:20;12.63;;;6.47;;
54191;SDS011;40101;53.002;6.488;2023-01-16T08:36:46;11.85;;;6.45;;
54191;SDS011;40101;53.002;6.488;2023-01-16T08:39:12;9.75;;;5.95;;
54191;SDS011;40101;53.002;6.488;2023-01-16T08:41:45;11.32;;;6.32;;
54191;SDS011;40101;53.002;6.488;2023-01-16T08:44:29;12.35;;;5.55;;
54191;SDS011;40101;53.002;6.488;2023-01-16T08:47:14;14.65;;;5.68;;
54191;SDS011;40101;53.002;6.488;2023-01-16T08:50:04;13.52;;;5.45;;
54191;SDS011;40101;53.002;6.488;2023-01-16T08:52:49;13.27;;;6.22;;
54191;SDS011;40101;53.002;6.488;2023-01-16T08:55:15;10.90;;;4.70;;
54191;SDS011;40101;53.002;6.488;2023-01-16T08:57:40;13.30;;;5.43;;
54191;SDS011;40101;53.002;6.488;2023-01-16T09:00:06;8.45;;;4.82;;
54191;SDS011;40101;53.002;6.488;2023-01-16T09:02:33;10.43;;;4.95;;
54191;SDS011;40101;53.002;6.488;2023-01-16T09:05:01;9.50;;;4.10;;
54191;SDS011;40101;53.002;6.488;2023-01-16T09:07:27;10.77;;;4.60;;
54191;SDS011;40101;53.002;6.488;2023-01-16T09:09:54;7.70;;;4.65;;
54191;SDS011;40101;53.002;6.488;2023-01-16T09:12:19;9.88;;;4.53;;
54191;SDS011;40101;53.002;6.488;2023-01-16T09:15:04;9.30;;;4.80;;
54191;SDS011;40101;53.002;6.488;2023-01-16T09:17:30;8.93;;;4.00;;
54191;SDS011;40101;53.002;6.488;2023-01-16T09:19:56;7.80;;;4.10;;
54191;SDS011;40101;53.002;6.488;2023-01-16T09:22:22;8.38;;;4.78;;
54191;SDS011;40101;53.002;6.488;2023-01-16T09:24:47;8.77;;;4.15;;
54191;SDS011;40101;53.002;6.488;2023-01-16T09:27:13;7.50;;;3.60;;
54191;SDS011;40101;53.002;6.488;2023-01-16T09:29:40;6.63;;;4.10;;
54191;SDS011;40101;53.002;6.488;2023-01-16T09:32:06;5.32;;;3.40;;
54191;SDS011;40101;53.002;6.488;2023-01-16T09:34:36;8.60;;;3.58;;
54191;SDS011;40101;53.002;6.488;2023-01-16T09:37:03;7.00;;;4.50;;
54191;SDS011;40101;53.002;6.488;2023-01-16T09:39:32;9.00;;;3.28;;
54191;SDS011;40101;53.002;6.488;2023-01-16T09:44:55;4.50;;;3.58;;
54191;SDS011;40101;53.002;6.488;2023-01-16T09:47:25;6.47;;;3.70;;
54191;SDS011;40101;53.002;6.488;2023-01-16T09:50:03;7.90;;;3.70;;
54191;SDS011;40101;53.002;6.488;2023-01-16T09:52:35;7.28;;;3.35;;
54191;SDS011;40101;53.002;6.488;2023-01-16T09:55:25;6.55;;;2.83;;
54191;SDS011;40101;53.002;6.488;2023-01-16T09:58:20;5.38;;;2.63;;
54191;SDS011;40101;53.002;6.488;2023-01-16T10:01:06;6.07;;;3.00;;
54191;SDS011;40101;53.002;6.488;2023-01-16T10:03:34;6.03;;;3.20;;
54191;SDS011;40101;53.002;6.488;2023-01-16T10:14:14;5.80;;;2.88;;
54191;SDS011;40101;53.002;6.488;2023-01-16T10:25:29;6.35;;;2.72;;
54191;SDS011;40101;53.002;6.488;2023-01-16T10:41:47;5.78;;;2.85;;
54191;SDS011;40101;53.002;6.488;2023-01-16T10:44:37;9.68;;;2.78;;
54191;SDS011;40101;53.002;6.488;2023-01-16T10:47:27;4.72;;;2.45;;
54191;SDS011;40101;53.002;6.488;2023-01-16T10:50:14;3.42;;;2.20;;
54191;SDS011;40101;53.002;6.488;2023-01-16T10:52:41;4.95;;;2.90;;
54191;SDS011;40101;53.002;6.488;2023-01-16T10:55:08;3.08;;;2.15;;
54191;SDS011;40101;53.002;6.488;2023-01-16T10:57:35;6.38;;;2.50;;
54191;SDS011;40101;53.002;6.488;2023-01-16T11:00:10;2.88;;;2.08;;
54191;SDS011;40101;53.002;6.488;2023-01-16T11:02:54;3.88;;;1.90;;
54191;SDS011;40101;53.002;6.488;2023-01-16T11:05:28;1.65;;;1.35;;
54191;SDS011;40101;53.002;6.488;2023-01-16T11:08:01;3.35;;;1.83;;
54191;SDS011;40101;53.002;6.488;2023-01-16T11:10:31;3.57;;;2.13;;
54191;SDS011;40101;53.002;6.488;2023-01-16T11:12:56;5.45;;;2.67;;
54191;SDS011;40101;53.002;6.488;2023-01-16T11:15:44;2.40;;;2.20;;
54191;SDS011;40101;53.002;6.488;2023-01-16T11:18:51;4.38;;;2.33;;
54191;SDS011;40101;53.002;6.488;2023-01-16T11:21:22;5.10;;;2.70;;
54191;SDS011;40101;53.002;6.488;2023-01-16T11:24:03;4.03;;;2.33;;
54191;SDS011;40101;53.002;6.488;2023-01-16T11:26:52;4.82;;;3.75;;
54191;SDS011;40101;53.002;6.488;2023-01-16T11:29:21;5.78;;;3.20;;
54191;SDS011;40101;53.002;6.488;2023-01-16T11:31:52;5.03;;;3.05;;
54191;SDS011;40101;53.002;6.488;2023-01-16T11:34:20;3.70;;;3.13;;
54191;SDS011;40101;53.002;6.488;2023-01-16T11:36:51;9.25;;;3.50;;
54191;SDS011;40101;53.002;6.488;2023-01-16T11:39:22;4.53;;;3.58;;
54191;SDS011;40101;53.002;6.488;2023-01-16T11:41:51;4.13;;;3.15;;
54191;SDS011;40101;53.002;6.488;2023-01-16T11:44:21;5.97;;;3.35;;
54191;SDS011;40101;53.002;6.488;2023-01-16T11:47:14;4.85;;;3.47;;
54191;SDS011;40101;53.002;6.488;2023-01-16T11:49:46;5.85;;;3.40;;
54191;SDS011;40101;53.002;6.488;2023-01-16T11:52:14;4.65;;;3.45;;
54191;SDS011;40101;53.002;6.488;2023-01-16T11:55:01;4.78;;;2.83;;
54191;SDS011;40101;53.002;6.488;2023-01-16T12:08:03;2.65;;;1.75;;
54191;SDS011;40101;53.002;6.488;2023-01-16T12:14:16;2.53;;;1.70;;
54191;SDS011;40101;53.002;6.488;2023-01-16T12:17:03;4.47;;;2.80;;
54191;SDS011;40101;53.002;6.488;2023-01-16T12:27:22;5.03;;;3.25;;
54191;SDS011;40101;53.002;6.488;2023-01-16T12:35:34;6.05;;;2.42;;
54191;SDS011;40101;53.002;6.488;2023-01-16T12:38:15;4.10;;;2.20;;
54191;SDS011;40101;53.002;6.488;2023-01-16T12:46:57;6.90;;;2.30;;
54191;SDS011;40101;53.002;6.488;2023-01-16T12:49:45;2.63;;;2.10;;
54191;SDS011;40101;53.002;6.488;2023-01-16T12:55:14;5.50;;;2.47;;
54191;SDS011;40101;53.002;6.488;2023-01-16T13:00:38;5.57;;;2.42;;
54191;SDS011;40101;53.002;6.488;2023-01-16T13:06:03;8.73;;;3.50;;
54191;SDS011;40101;53.002;6.488;2023-01-16T13:08:39;6.38;;;2.95;;
54191;SDS011;40101;53.002;6.488;2023-01-16T13:11:11;4.43;;;2.53;;
54191;SDS011;40101;53.002;6.488;2023-01-16T13:14:04;5.07;;;2.58;;
54191;SDS011;40101;53.002;6.488;2023-01-16T13:16:40;4.70;;;3.22;;
54191;SDS011;40101;53.002;6.488;2023-01-16T13:19:25;4.25;;;3.05;;
54191;SDS011;40101;53.002;6.488;2023-01-16T13:24:32;9.30;;;3.25;;
54191;SDS011;40101;53.002;6.488;2023-01-16T13:27:03;4.32;;;3.05;;
54191;SDS011;40101;53.002;6.488;2023-01-16T13:29:42;8.48;;;5.32;;
54191;SDS011;40101;53.002;6.488;2023-01-16T13:32:30;5.72;;;3.78;;
54191;SDS011;40101;53.002;6.488;2023-01-16T13:35:04;5.55;;;3.10;;
54191;SDS011;40101;53.002;6.488;2023-01-16T13:40:45;6.05;;;4.00;;
54191;SDS011;40101;53.002;6.488;2023-01-16T13:43:33;4.75;;;2.88;;
54191;SDS011;40101;53.002;6.488;2023-01-16T13:46:38;5.32;;;3.25;;
54191;SDS011;40101;53.002;6.488;2023-01-16T13:49:05;5.07;;;3.08;;
54191;SDS011;40101;53.002;6.488;2023-01-16T13:51:40;6.63;;;3.10;;
54191;SDS011;40101;53.002;6.488;2023-01-16T13:54:11;7.55;;;4.07;;
54191;SDS011;40101;53.002;6.488;2023-01-16T13:56:43;4.05;;;3.10;;
54191;SDS011;40101;53.002;6.488;2023-01-16T14:15:58;5.07;;;2.63;;
54191;SDS011;40101;53.002;6.488;2023-01-16T14:21:44;3.95;;;3.15;;
54191;SDS011;40101;53.002;6.488;2023-01-16T14:24:44;3.58;;;2.95;;
54191;SDS011;40101;53.002;6.488;2023-01-16T14:27:13;7.57;;;3.05;;
54191;SDS011;40101;53.002;6.488;2023-01-16T14:40:21;3.80;;;2.38;;
54191;SDS011;40101;53.002;6.488;2023-01-16T14:43:11;4.38;;;2.45;;
54191;SDS011;40101;53.002;6.488;2023-01-16T14:46:23;6.15;;;2.83;;
54191;SDS011;40101;53.002;6.488;2023-01-16T14:55:26;4.07;;;2.08;;
54191;SDS011;40101;53.002;6.488;2023-01-16T14:58:12;3.72;;;2.05;;
54191;SDS011;40101;53.002;6.488;2023-01-16T15:00:42;4.22;;;1.33;;
54191;SDS011;40101;53.002;6.488;2023-01-16T15:03:09;4.05;;;1.60;;
54191;SDS011;40101;53.002;6.488;2023-01-16T15:05:45;2.35;;;1.60;;
54191;SDS011;40101;53.002;6.488;2023-01-16T15:08:25;4.40;;;1.70;;
54191;SDS011;40101;53.002;6.488;2023-01-16T15:10:55;4.90;;;1.95;;
54191;SDS011;40101;53.002;6.488;2023-01-16T15:15:52;2.63;;;1.60;;
54191;SDS011;40101;53.002;6.488;2023-01-16T15:18:29;3.90;;;1.70;;
54191;SDS011;40101;53.002;6.488;2023-01-16T15:21:25;5.97;;;1.63;;
54191;SDS011;40101;53.002;6.488;2023-01-16T15:24:09;3.03;;;2.10;;
54191;SDS011;40101;53.002;6.488;2023-01-16T15:32:09;2.67;;;2.20;;
54191;SDS011;40101;53.002;6.488;2023-01-16T15:34:42;7.00;;;2.50;;
54191;SDS011;40101;53.002;6.488;2023-01-16T15:37:19;5.55;;;2.38;;
54191;SDS011;40101;53.002;6.488;2023-01-16T15:39:48;3.55;;;2.42;;
54191;SDS011;40101;53.002;6.488;2023-01-16T15:42:16;5.15;;;2.30;;
54191;SDS011;40101;53.002;6.488;2023-01-16T15:50:56;6.55;;;2.70;;
54191;SDS011;40101;53.002;6.488;2023-01-16T15:53:23;6.55;;;3.05;;
54191;SDS011;40101;53.002;6.488;2023-01-16T15:56:06;2.72;;;2.50;;
54191;SDS011;40101;53.002;6.488;2023-01-16T15:58:40;4.75;;;2.88;;
54191;SDS011;40101;53.002;6.488;2023-01-16T16:01:06;7.50;;;3.55;;
54191;SDS011;40101;53.002;6.488;2023-01-16T16:03:52;4.03;;;3.13;;
54191;SDS011;40101;53.002;6.488;2023-01-16T16:11:19;3.75;;;3.08;;
54191;SDS011;40101;53.002;6.488;2023-01-16T16:14:05;3.13;;;2.83;;
54191;SDS011;40101;53.002;6.488;2023-01-16T16:17:02;6.10;;;3.55;;
54191;SDS011;40101;53.002;6.488;2023-01-16T16:19:48;3.97;;;3.00;;
54191;SDS011;40101;53.002;6.488;2023-01-16T16:22:17;3.67;;;3.15;;
54191;SDS011;40101;53.002;6.488;2023-01-16T16:25:06;6.47;;;3.42;;
54191;SDS011;40101;53.002;6.488;2023-01-16T16:27:40;3.63;;;3.10;;
54191;SDS011;40101;53.002;6.488;2023-01-16T16:30:07;6.82;;;3.30;;
54191;SDS011;40101;53.002;6.488;2023-01-16T16:32:43;5.47;;;3.08;;
54191;SDS011;40101;53.002;6.488;2023-01-16T16:37:57;4.35;;;3.80;;
54191;SDS011;40101;53.002;6.488;2023-01-16T16:40:24;8.27;;;4.03;;
54191;SDS011;40101;53.002;6.488;2023-01-16T16:42:51;4.55;;;3.45;;
54191;SDS011;40101;53.002;6.488;2023-01-16T16:45:23;4.78;;;3.38;;
54191;SDS011;40101;53.002;6.488;2023-01-16T16:50:44;4.55;;;3.40;;
54191;SDS011;40101;53.002;6.488;2023-01-16T16:53:15;4.85;;;3.88;;
54191;SDS011;40101;53.002;6.488;2023-01-16T16:58:25;3.90;;;3.40;;
54191;SDS011;40101;53.002;6.488;2023-01-16T17:00:52;7.13;;;4.13;;
54191;SDS011;40101;53.002;6.488;2023-01-16T17:03:19;8.32;;;4.43;;
54191;SDS011;40101;53.002;6.488;2023-01-16T17:05:47;6.82;;;3.70;;
54191;SDS011;40101;53.002;6.488;2023-01-16T17:08:20;4.82;;;3.40;;
54191;SDS011;40101;53.002;6.488;2023-01-16T17:10:48;4.05;;;3.65;;
54191;SDS011;40101;53.002;6.488;2023-01-16T17:13:15;3.75;;;3.13;;
54191;SDS011;40101;53.002;6.488;2023-01-16T17:15:42;4.38;;;3.40;;
54191;SDS011;40101;53.002;6.488;2023-01-16T17:18:09;4.03;;;3.38;;
54191;SDS011;40101;53.002;6.488;2023-01-16T17:20:36;4.68;;;3.42;;
54191;SDS011;40101;53.002;6.488;2023-01-16T17:23:03;5.03;;;3.60;;
54191;SDS011;40101;53.002;6.488;2023-01-16T17:25:35;4.25;;;3.50;;
54191;SDS011;40101;53.002;6.488;2023-01-16T17:28:00;5.32;;;4.05;;
54191;SDS011;40101;53.002;6.488;2023-01-16T17:30:26;4.03;;;3.63;;
54191;SDS011;40101;53.002;6.488;2023-01-16T17:32:53;4.70;;;4.20;;
54191;SDS011;40101;53.002;6.488;2023-01-16T17:35:41;7.85;;;4.75;;
54191;SDS011;40101;53.002;6.488;2023-01-16T17:38:12;6.13;;;4.50;;
54191;SDS011;40101;53.002;6.488;2023-01-16T17:40:39;6.50;;;4.03;;
54191;SDS011;40101;53.002;6.488;2023-01-16T17:43:05;5.47;;;4.85;;
54191;SDS011;40101;53.002;6.488;2023-01-16T17:45:50;5.13;;;4.15;;
54191;SDS011;40101;53.002;6.488;2023-01-16T17:48:17;6.00;;;5.10;;
54191;SDS011;40101;53.002;6.488;2023-01-16T17:50:44;8.45;;;4.57;;
54191;SDS011;40101;53.002;6.488;2023-01-16T17:53:11;5.88;;;5.15;;
54191;SDS011;40101;53.002;6.488;2023-01-16T17:55:39;5.75;;;4.95;;
54191;SDS011;40101;53.002;6.488;2023-01-16T17:58:22;6.97;;;5.40;;
54191;SDS011;40101;53.002;6.488;2023-01-16T18:01:14;7.72;;;6.60;;
54191;SDS011;40101;53.002;6.488;2023-01-16T18:03:43;10.18;;;6.93;;
54191;SDS011;40101;53.002;6.488;2023-01-16T18:06:22;9.40;;;6.45;;
54191;SDS011;40101;53.002;6.488;2023-01-16T18:08:49;10.15;;;8.07;;
54191;SDS011;40101;53.002;6.488;2023-01-16T18:11:16;7.13;;;6.43;;
54191;SDS011;40101;53.002;6.488;2023-01-16T18:14:01;7.90;;;6.88;;
54191;SDS011;40101;53.002;6.488;2023-01-16T18:16:45;10.10;;;8.68;;